createdAt,value
2022-07-26T00:00:04.947Z,998.12
2022-07-26T00:01:09.812Z,998.03
2022-07-26T00:02:19.020Z,998.06
2022-07-26T00:03:23.507Z,998.14
2022-07-26T00:04:27.937Z,998.12
2022-07-26T00:05:33.063Z,998.2
2022-07-26T00:06:37.566Z,998.13
2022-07-26T00:07:42.664Z,998.17
2022-07-26T00:08:47.165Z,998.13
2022-07-26T00:10:08.906Z,998.2
2022-07-26T00:11:12.807Z,998.22
2022-07-26T00:12:17.330Z,998.18
2022-07-26T00:13:21.751Z,998.21
2022-07-26T00:14:26.281Z,998.23
2022-07-26T00:15:30.867Z,998.24
2022-07-26T00:16:35.675Z,998.28
2022-07-26T00:17:40.253Z,998.27
2022-07-26T00:18:44.787Z,998.21
2022-07-26T00:19:49.323Z,998.22
2022-07-26T00:20:55.831Z,998.22
2022-07-26T00:22:00.182Z,998.19
2022-07-26T00:23:04.861Z,998.22
2022-07-26T00:24:09.415Z,998.26
2022-07-26T00:25:14.018Z,998.27
2022-07-26T00:26:18.535Z,998.27
2022-07-26T00:27:25.987Z,998.28
2022-07-26T00:28:30.347Z,998.25
2022-07-26T00:29:34.889Z,998.31
2022-07-26T00:30:39.394Z,998.24
2022-07-26T00:31:44.256Z,998.26
2022-07-26T00:32:48.806Z,998.33
2022-07-26T00:33:53.317Z,998.31
2022-07-26T00:34:57.835Z,998.29
2022-07-26T00:36:02.418Z,998.31
2022-07-26T00:37:06.911Z,998.31
2022-07-26T00:38:11.487Z,998.33
2022-07-26T00:39:15.994Z,998.34
2022-07-26T00:40:20.499Z,998.37
2022-07-26T00:41:25.137Z,998.38
2022-07-26T00:42:30.213Z,998.42
2022-07-26T00:43:35.672Z,998.45
2022-07-26T00:44:40.156Z,998.37
2022-07-26T00:45:44.930Z,998.42
2022-07-26T00:46:49.480Z,998.36
2022-07-26T00:47:53.980Z,998.38
2022-07-26T00:48:58.891Z,998.36
2022-07-26T00:50:03.459Z,998.33
2022-07-26T00:51:07.977Z,998.39
2022-07-26T00:52:12.532Z,998.35
2022-07-26T00:53:17.048Z,998.43
2022-07-26T00:54:21.568Z,998.39
2022-07-26T00:55:26.093Z,998.46
2022-07-26T00:56:30.617Z,998.44
2022-07-26T00:57:35.233Z,998.45
2022-07-26T00:58:41.175Z,998.4
2022-07-26T00:59:48.746Z,998.47
2022-07-26T01:00:53.863Z,998.48
2022-07-26T01:01:59.675Z,998.46
2022-07-26T01:03:04.254Z,998.52
2022-07-26T01:04:10.435Z,998.5
2022-07-26T01:05:15.079Z,998.5
2022-07-26T01:06:27.852Z,998.5
2022-07-26T01:07:32.096Z,998.51
2022-07-26T01:08:36.576Z,998.49
2022-07-26T01:09:41.035Z,998.54
2022-07-26T01:10:45.554Z,998.52
2022-07-26T01:11:50.651Z,998.54
2022-07-26T01:12:55.196Z,998.57
2022-07-26T01:13:59.753Z,998.5
2022-07-26T01:15:04.301Z,998.51
2022-07-26T01:16:09.188Z,998.49
2022-07-26T01:17:13.738Z,998.47
2022-07-26T01:18:18.248Z,998.5
2022-07-26T01:19:22.761Z,998.44
2022-07-26T01:20:27.329Z,998.47
2022-07-26T01:21:31.879Z,998.46
2022-07-26T01:22:36.470Z,998.47
2022-07-26T01:23:41.570Z,998.52
2022-07-26T01:24:46.088Z,998.44
2022-07-26T01:25:52.431Z,998.48
2022-07-26T01:26:56.840Z,998.52
2022-07-26T01:28:01.376Z,998.5
2022-07-26T01:29:05.889Z,998.54
2022-07-26T01:30:10.536Z,998.55
2022-07-26T01:31:15.433Z,998.59
2022-07-26T01:32:19.991Z,998.6
2022-07-26T01:33:24.518Z,998.64
2022-07-26T01:34:29.041Z,998.63
2022-07-26T01:35:33.633Z,998.65
2022-07-26T01:36:40.056Z,998.66
2022-07-26T01:37:44.497Z,998.69
2022-07-26T01:38:49.032Z,998.66
2022-07-26T01:39:53.577Z,998.64
2022-07-26T01:40:58.208Z,998.68
2022-07-26T01:42:02.795Z,998.69
2022-07-26T01:43:07.338Z,998.69
2022-07-26T01:44:13.393Z,998.71
2022-07-26T01:45:17.989Z,998.71
2022-07-26T01:46:22.795Z,998.68
2022-07-26T01:47:27.330Z,998.7
2022-07-26T01:48:32.232Z,998.71
2022-07-26T01:49:36.783Z,998.72
2022-07-26T01:50:41.310Z,998.72
2022-07-26T01:51:45.870Z,998.72
2022-07-26T01:52:50.400Z,998.74
2022-07-26T01:53:55.487Z,998.74
2022-07-26T01:55:00.027Z,998.8
2022-07-26T01:56:04.602Z,998.76
2022-07-26T01:57:09.715Z,998.77
2022-07-26T01:58:14.286Z,998.74
2022-07-26T01:59:18.807Z,998.71
2022-07-26T02:00:23.374Z,998.75
2022-07-26T02:01:40.436Z,998.69
2022-07-26T02:02:55.142Z,998.74
2022-07-26T02:03:59.433Z,998.77
2022-07-26T02:05:04.135Z,998.71
2022-07-26T02:06:15.080Z,998.78
2022-07-26T02:07:19.268Z,998.75
2022-07-26T02:08:24.496Z,998.75
2022-07-26T02:09:40.243Z,998.82
2022-07-26T02:10:45.015Z,998.84
2022-07-26T02:11:49.487Z,998.77
2022-07-26T02:12:54.100Z,998.75
2022-07-26T02:13:58.648Z,998.85
2022-07-26T02:15:03.199Z,998.79
2022-07-26T02:16:08.059Z,998.84
2022-07-26T02:17:12.568Z,998.76
2022-07-26T02:18:17.115Z,998.85
2022-07-26T02:19:21.713Z,998.88
2022-07-26T02:20:26.952Z,998.87
2022-07-26T02:21:31.507Z,998.89
2022-07-26T02:22:36.038Z,998.84
2022-07-26T02:23:42.432Z,998.84
2022-07-26T02:24:46.803Z,998.86
2022-07-26T02:25:51.347Z,998.84
2022-07-26T02:26:55.855Z,998.86
2022-07-26T02:28:00.340Z,998.82
2022-07-26T02:29:04.923Z,998.83
2022-07-26T02:30:10.006Z,998.8
2022-07-26T02:31:16.087Z,998.83
2022-07-26T02:32:20.540Z,998.87
2022-07-26T02:33:25.063Z,998.81
2022-07-26T02:34:34.360Z,998.8
2022-07-26T02:35:38.684Z,998.8
2022-07-26T02:36:43.239Z,998.82
2022-07-26T02:37:47.817Z,998.81
2022-07-26T02:38:54.069Z,998.74
2022-07-26T02:39:58.591Z,998.8
2022-07-26T02:41:03.196Z,998.83
2022-07-26T02:42:07.756Z,998.84
2022-07-26T02:43:12.432Z,998.82
2022-07-26T02:44:16.941Z,998.85
2022-07-26T02:45:21.476Z,998.74
2022-07-26T02:46:26.256Z,998.79
2022-07-26T02:47:30.783Z,998.78
2022-07-26T02:48:35.776Z,998.79
2022-07-26T02:49:40.318Z,998.84
2022-07-26T02:50:44.853Z,998.8
2022-07-26T02:51:49.385Z,998.84
2022-07-26T02:52:53.937Z,998.82
2022-07-26T02:53:58.436Z,998.78
2022-07-26T02:55:02.981Z,998.8
2022-07-26T02:56:07.468Z,998.77
2022-07-26T02:57:15.463Z,998.81
2022-07-26T02:58:19.842Z,998.77
2022-07-26T02:59:24.346Z,998.78
2022-07-26T03:00:28.902Z,998.75
2022-07-26T03:01:33.720Z,998.81
2022-07-26T03:02:38.492Z,998.8
2022-07-26T03:03:51.435Z,998.81
2022-07-26T03:04:55.613Z,998.82
2022-07-26T03:06:00.133Z,998.83
2022-07-26T03:07:04.662Z,998.84
2022-07-26T03:08:09.189Z,998.79
2022-07-26T03:09:13.678Z,998.83
2022-07-26T03:10:36.695Z,998.85
2022-07-26T03:11:42.598Z,998.88
2022-07-26T03:12:47.102Z,998.87
2022-07-26T03:13:51.881Z,998.82
2022-07-26T03:14:56.351Z,998.85
2022-07-26T03:16:01.315Z,998.85
2022-07-26T03:17:05.869Z,998.85
2022-07-26T03:18:10.367Z,998.86
2022-07-26T03:19:14.865Z,998.88
2022-07-26T03:20:19.360Z,998.91
2022-07-26T03:21:23.896Z,998.87
2022-07-26T03:22:38.469Z,998.87
2022-07-26T03:23:42.580Z,998.87
2022-07-26T03:24:47.043Z,998.87
2022-07-26T03:25:51.531Z,998.85
2022-07-26T03:26:56.056Z,998.86
2022-07-26T03:28:00.560Z,998.87
2022-07-26T03:29:05.081Z,998.95
2022-07-26T03:30:09.599Z,998.94
2022-07-26T03:31:14.388Z,998.95
2022-07-26T03:32:18.869Z,998.91
2022-07-26T03:33:23.454Z,998.95
2022-07-26T03:34:27.986Z,998.96
2022-07-26T03:35:37.086Z,998.94
2022-07-26T03:36:41.417Z,998.92
2022-07-26T03:37:47.026Z,998.92
2022-07-26T03:38:52.085Z,998.96
2022-07-26T03:39:57.597Z,998.96
2022-07-26T03:41:02.054Z,998.91
2022-07-26T03:42:06.588Z,998.98
2022-07-26T03:43:11.249Z,999.01
2022-07-26T03:44:15.791Z,998.98
2022-07-26T03:45:20.296Z,999.03
2022-07-26T03:46:25.076Z,998.97
2022-07-26T03:47:29.640Z,998.93
2022-07-26T03:48:34.477Z,998.97
2022-07-26T03:49:39.045Z,998.97
2022-07-26T03:50:43.569Z,998.92
2022-07-26T03:51:48.148Z,998.98
2022-07-26T03:52:52.652Z,998.96
2022-07-26T03:53:57.250Z,999.03
2022-07-26T03:55:01.782Z,999.04
2022-07-26T03:56:06.327Z,999.05
2022-07-26T03:57:10.877Z,999.07
2022-07-26T03:58:15.378Z,999.06
2022-07-26T03:59:19.880Z,999.04
2022-07-26T04:00:24.396Z,999.02
2022-07-26T04:01:29.183Z,998.98
2022-07-26T04:02:33.980Z,999.03
2022-07-26T04:03:40.018Z,998.99
2022-07-26T04:04:46.718Z,999.02
2022-07-26T04:05:53.014Z,999
2022-07-26T04:06:57.382Z,998.99
2022-07-26T04:08:02.337Z,999
2022-07-26T04:09:08.343Z,998.99
2022-07-26T04:10:12.770Z,999.07
2022-07-26T04:11:17.295Z,999.05
2022-07-26T04:12:22.046Z,999.04
2022-07-26T04:13:26.597Z,999.06
2022-07-26T04:14:31.125Z,999.11
2022-07-26T04:15:35.460Z,999.08
2022-07-26T04:16:44.326Z,999.09
2022-07-26T04:17:51.894Z,999.08
2022-07-26T04:18:56.277Z,999.09
2022-07-26T04:20:00.738Z,999.12
2022-07-26T04:21:05.527Z,999.09
2022-07-26T04:22:09.975Z,999.1
2022-07-26T04:23:15.949Z,999.09
2022-07-26T04:24:28.516Z,999.1
2022-07-26T04:25:41.938Z,999.09
2022-07-26T04:26:46.119Z,999.13
2022-07-26T04:27:50.583Z,999.16
2022-07-26T04:28:55.071Z,999.14
2022-07-26T04:29:59.813Z,999.18
2022-07-26T04:31:04.567Z,999.22
2022-07-26T04:32:09.296Z,999.19
2022-07-26T04:33:14.333Z,999.2
2022-07-26T04:34:18.846Z,999.24
2022-07-26T04:35:23.332Z,999.24
2022-07-26T04:36:27.850Z,999.23
2022-07-26T04:37:32.356Z,999.24
2022-07-26T04:38:37.209Z,999.27
2022-07-26T04:39:41.773Z,999.29
2022-07-26T04:40:46.417Z,999.27
2022-07-26T04:41:50.931Z,999.25
2022-07-26T04:42:55.458Z,999.29
2022-07-26T04:43:59.981Z,999.29
2022-07-26T04:45:09.048Z,999.32
2022-07-26T04:46:13.729Z,999.28
2022-07-26T04:47:18.247Z,999.3
2022-07-26T04:48:22.766Z,999.27
2022-07-26T04:49:27.304Z,999.25
2022-07-26T04:50:31.791Z,999.25
2022-07-26T04:51:36.360Z,999.26
2022-07-26T04:52:40.838Z,999.27
2022-07-26T04:53:45.613Z,999.26
2022-07-26T04:54:50.708Z,999.26
2022-07-26T04:55:55.250Z,999.28
2022-07-26T04:56:59.742Z,999.28
2022-07-26T04:58:04.309Z,999.31
2022-07-26T04:59:08.855Z,999.28
2022-07-26T05:00:24.745Z,999.28
2022-07-26T05:01:29.733Z,999.25
2022-07-26T05:02:34.404Z,999.3
2022-07-26T05:03:38.996Z,999.25
2022-07-26T05:04:43.506Z,999.32
2022-07-26T05:05:48.090Z,999.28
2022-07-26T05:06:52.618Z,999.29
2022-07-26T05:07:57.162Z,999.34
2022-07-26T05:09:01.679Z,999.32
2022-07-26T05:10:06.198Z,999.33
2022-07-26T05:11:10.760Z,999.32
2022-07-26T05:12:15.298Z,999.35
2022-07-26T05:13:31.212Z,999.3
2022-07-26T05:14:35.328Z,999.26
2022-07-26T05:15:45.098Z,999.31
2022-07-26T05:16:49.580Z,999.25
2022-07-26T05:17:56.172Z,999.25
2022-07-26T05:19:00.572Z,999.28
2022-07-26T05:20:05.131Z,999.32
2022-07-26T05:21:09.669Z,999.36
2022-07-26T05:22:14.177Z,999.37
2022-07-26T05:23:18.669Z,999.41
2022-07-26T05:24:23.230Z,999.42
2022-07-26T05:25:27.749Z,999.43
2022-07-26T05:26:32.276Z,999.44
2022-07-26T05:27:36.805Z,999.46
2022-07-26T05:28:42.851Z,999.51
2022-07-26T05:29:47.281Z,999.53
2022-07-26T05:30:52.314Z,999.51
2022-07-26T05:31:57.280Z,999.45
2022-07-26T05:33:01.798Z,999.48
2022-07-26T05:34:08.037Z,999.47
2022-07-26T05:35:12.571Z,999.46
2022-07-26T05:36:17.111Z,999.49
2022-07-26T05:37:21.853Z,999.49
2022-07-26T05:38:27.891Z,999.5
2022-07-26T05:39:32.427Z,999.49
2022-07-26T05:40:36.922Z,999.52
2022-07-26T05:41:41.443Z,999.55
2022-07-26T05:42:46.035Z,999.47
2022-07-26T05:43:50.526Z,999.52
2022-07-26T05:44:57.363Z,999.55
2022-07-26T05:46:10.300Z,999.54
2022-07-26T05:47:14.531Z,999.55
2022-07-26T05:48:22.305Z,999.55
2022-07-26T05:49:40.014Z,999.58
2022-07-26T05:50:40.701Z,999.59
2022-07-26T05:51:46.747Z,999.52
2022-07-26T05:52:52.103Z,999.63
2022-07-26T05:53:56.679Z,999.6
2022-07-26T05:55:01.207Z,999.6
2022-07-26T05:56:05.704Z,999.61
2022-07-26T05:57:10.276Z,999.58
2022-07-26T05:58:14.887Z,999.61
2022-07-26T05:59:19.439Z,999.6
2022-07-26T06:00:24.006Z,999.62
2022-07-26T06:01:28.551Z,999.64
2022-07-26T06:02:33.325Z,999.55
2022-07-26T06:03:37.958Z,999.59
2022-07-26T06:04:42.982Z,999.57
2022-07-26T06:05:47.545Z,999.6
2022-07-26T06:06:52.087Z,999.63
2022-07-26T06:07:56.632Z,999.65
2022-07-26T06:09:01.132Z,999.57
2022-07-26T06:10:05.686Z,999.54
2022-07-26T06:11:10.222Z,999.59
2022-07-26T06:12:14.766Z,999.59
2022-07-26T06:13:19.311Z,999.64
2022-07-26T06:14:23.800Z,999.6
2022-07-26T06:15:28.354Z,999.63
2022-07-26T06:16:32.941Z,999.62
2022-07-26T06:17:37.632Z,999.62
2022-07-26T06:18:42.191Z,999.68
2022-07-26T06:19:48.726Z,999.69
2022-07-26T06:20:53.217Z,999.74
2022-07-26T06:21:30.208Z,999.71
2022-07-26T06:24:02.749Z,999.7
2022-07-26T06:25:07.303Z,999.72
2022-07-26T06:26:11.872Z,999.69
2022-07-26T06:27:16.411Z,999.71
2022-07-26T06:28:20.956Z,999.68
2022-07-26T06:29:32.993Z,999.7
2022-07-26T06:30:37.285Z,999.69
2022-07-26T06:31:42.095Z,999.66
2022-07-26T06:32:46.713Z,999.72
2022-07-26T06:33:51.273Z,999.73
2022-07-26T06:34:55.921Z,999.75
2022-07-26T06:36:00.582Z,999.78
2022-07-26T06:37:05.174Z,999.77
2022-07-26T06:38:09.720Z,999.72
2022-07-26T06:39:14.304Z,999.75
2022-07-26T06:40:18.876Z,999.75
2022-07-26T06:41:23.449Z,999.74
2022-07-26T06:42:28.066Z,999.8
2022-07-26T06:43:32.663Z,999.81
2022-07-26T06:44:37.229Z,999.78
2022-07-26T06:45:42.091Z,999.79
2022-07-26T06:46:46.657Z,999.78
2022-07-26T06:47:51.237Z,999.8
2022-07-26T06:48:57.634Z,999.76
2022-07-26T06:50:02.217Z,999.77
2022-07-26T06:51:06.784Z,999.75
2022-07-26T06:52:11.434Z,999.78
2022-07-26T06:53:16.054Z,999.71
2022-07-26T06:54:20.691Z,999.75
2022-07-26T06:55:25.247Z,999.78
2022-07-26T06:56:29.874Z,999.75
2022-07-26T06:57:50.233Z,999.77
2022-07-26T06:58:54.694Z,999.79
2022-07-26T06:59:59.247Z,999.79
2022-07-26T07:01:04.066Z,999.7
2022-07-26T07:02:09.057Z,999.71
2022-07-26T07:03:13.678Z,999.67
2022-07-26T07:04:19.008Z,999.71
2022-07-26T07:05:24.215Z,999.68
2022-07-26T07:06:28.728Z,999.66
2022-07-26T07:07:34.142Z,999.64
2022-07-26T07:08:42.787Z,999.58
2022-07-26T07:09:49.097Z,999.58
2022-07-26T07:10:54.487Z,999.66
2022-07-26T07:12:10.779Z,999.66
2022-07-26T07:13:15.156Z,999.67
2022-07-26T07:14:19.636Z,999.73
2022-07-26T07:15:24.145Z,999.78
2022-07-26T07:16:28.925Z,999.76
2022-07-26T07:17:36.104Z,999.75
2022-07-26T07:18:40.539Z,999.76
2022-07-26T07:19:45.098Z,999.75
2022-07-26T07:20:49.682Z,999.73
2022-07-26T07:21:54.286Z,999.7
2022-07-26T07:22:58.994Z,999.71
2022-07-26T07:24:03.585Z,999.76
2022-07-26T07:25:08.757Z,999.73
2022-07-26T07:26:13.323Z,999.68
2022-07-26T07:27:17.920Z,999.64
2022-07-26T07:28:26.827Z,999.61
2022-07-26T07:29:32.146Z,999.65
2022-07-26T07:30:38.574Z,999.61
2022-07-26T07:31:50.123Z,999.68
2022-07-26T07:32:54.500Z,999.64
2022-07-26T07:33:59.093Z,999.68
2022-07-26T07:35:13.343Z,999.67
2022-07-26T07:36:17.664Z,999.65
2022-07-26T07:37:22.284Z,999.65
2022-07-26T07:38:30.481Z,999.72
2022-07-26T07:39:41.584Z,999.71
2022-07-26T07:40:45.873Z,999.69
2022-07-26T07:41:50.494Z,999.65
2022-07-26T07:42:55.079Z,999.65
2022-07-26T07:43:59.632Z,999.61
2022-07-26T07:45:04.228Z,999.65
2022-07-26T07:46:08.831Z,999.64
2022-07-26T07:47:13.665Z,999.59
2022-07-26T07:48:18.328Z,999.59
2022-07-26T07:49:23.213Z,999.56
2022-07-26T07:50:28.811Z,999.63
2022-07-26T07:51:36.798Z,999.62
2022-07-26T07:52:41.155Z,999.6
2022-07-26T07:53:58.009Z,999.69
2022-07-26T07:55:36.257Z,999.61
2022-07-26T07:56:26.603Z,999.67
2022-07-26T07:57:32.336Z,999.63
2022-07-26T07:58:36.823Z,999.63
2022-07-26T07:59:41.388Z,999.63
2022-07-26T08:00:48.973Z,999.65
2022-07-26T08:01:53.547Z,999.68
2022-07-26T08:02:58.112Z,999.66
2022-07-26T08:04:03.102Z,999.7
2022-07-26T08:05:15.976Z,999.64
2022-07-26T08:06:20.498Z,999.72
2022-07-26T08:07:36.571Z,999.67
2022-07-26T08:08:43.244Z,999.76
2022-07-26T08:09:47.714Z,999.73
2022-07-26T08:10:53.696Z,999.69
2022-07-26T08:12:00.469Z,999.64
2022-07-26T08:13:11.305Z,999.66
2022-07-26T08:14:18.192Z,999.66
2022-07-26T08:15:22.655Z,999.65
2022-07-26T08:16:27.681Z,999.7
2022-07-26T08:17:42.214Z,999.63
2022-07-26T08:18:58.441Z,999.71
2022-07-26T08:20:03.455Z,999.73
2022-07-26T08:21:08.038Z,999.66
2022-07-26T08:22:13.571Z,999.63
2022-07-26T08:23:18.113Z,999.64
2022-07-26T08:24:22.691Z,999.69
2022-07-26T08:25:27.295Z,999.68
2022-07-26T08:26:31.892Z,999.7
2022-07-26T08:27:42.148Z,999.71
2022-07-26T08:29:00.191Z,999.71
2022-07-26T08:30:04.557Z,999.7
2022-07-26T08:31:09.551Z,999.73
2022-07-26T08:32:14.167Z,999.76
2022-07-26T08:33:18.767Z,999.75
2022-07-26T08:34:23.378Z,999.76
2022-07-26T08:35:27.910Z,999.78
2022-07-26T08:36:33.547Z,999.73
2022-07-26T08:37:38.043Z,999.74
2022-07-26T08:38:42.577Z,999.74
2022-07-26T08:39:47.158Z,999.73
2022-07-26T08:40:51.758Z,999.75
2022-07-26T08:41:56.356Z,999.77
2022-07-26T08:43:00.992Z,999.71
2022-07-26T08:44:05.624Z,999.72
2022-07-26T08:45:10.221Z,999.65
2022-07-26T08:46:15.020Z,999.65
2022-07-26T08:47:46.335Z,999.69
2022-07-26T08:48:46.256Z,999.72
2022-07-26T08:49:50.777Z,999.72
2022-07-26T08:50:55.349Z,999.67
2022-07-26T08:51:59.966Z,999.61
2022-07-26T08:53:04.744Z,999.71
2022-07-26T08:54:11.967Z,999.68
2022-07-26T08:55:16.408Z,999.72
2022-07-26T08:56:20.975Z,999.69
2022-07-26T08:57:25.569Z,999.72
2022-07-26T08:58:30.175Z,999.71
2022-07-26T08:59:34.758Z,999.69
2022-07-26T09:00:39.543Z,999.67
2022-07-26T09:01:44.167Z,999.72
2022-07-26T09:02:49.161Z,999.65
2022-07-26T09:03:54.547Z,999.72
2022-07-26T09:04:59.089Z,999.75
2022-07-26T09:06:03.684Z,999.76
2022-07-26T09:07:08.248Z,999.78
2022-07-26T09:08:12.809Z,999.77
2022-07-26T09:09:17.433Z,999.72
2022-07-26T09:10:22.026Z,999.74
2022-07-26T09:11:26.740Z,999.79
2022-07-26T09:12:31.358Z,999.79
2022-07-26T09:13:35.904Z,999.75
2022-07-26T09:14:40.464Z,999.77
2022-07-26T09:15:45.276Z,999.8
2022-07-26T09:16:50.011Z,999.76
2022-07-26T09:17:54.645Z,999.81
2022-07-26T09:18:59.258Z,999.73
2022-07-26T09:20:03.836Z,999.75
2022-07-26T09:21:08.425Z,999.79
2022-07-26T09:22:13.082Z,999.71
2022-07-26T09:23:17.686Z,999.81
2022-07-26T09:24:22.311Z,999.82
2022-07-26T09:25:26.913Z,999.77
2022-07-26T09:26:31.569Z,999.81
2022-07-26T09:27:36.149Z,999.77
2022-07-26T09:28:45.572Z,999.83
2022-07-26T09:29:49.939Z,999.76
2022-07-26T09:30:54.935Z,999.81
2022-07-26T09:32:00.421Z,999.76
2022-07-26T09:33:05.044Z,999.86
2022-07-26T09:34:11.077Z,999.83
2022-07-26T09:35:50.284Z,999.8
2022-07-26T09:36:39.563Z,999.77
2022-07-26T09:37:44.184Z,999.75
2022-07-26T09:38:48.779Z,999.79
2022-07-26T09:39:53.250Z,999.8
2022-07-26T09:40:57.865Z,999.82
2022-07-26T09:42:27.743Z,999.81
2022-07-26T09:43:26.360Z,999.84
2022-07-26T09:44:31.010Z,999.78
2022-07-26T09:45:35.555Z,999.79
2022-07-26T09:46:40.431Z,999.81
2022-07-26T09:47:45.076Z,999.77
2022-07-26T09:49:10.296Z,999.76
2022-07-26T09:50:14.223Z,999.8
2022-07-26T09:51:25.644Z,999.81
2022-07-26T09:52:29.860Z,999.85
2022-07-26T09:53:34.393Z,999.82
2022-07-26T09:54:38.915Z,999.78
2022-07-26T09:55:45.597Z,999.78
2022-07-26T09:56:50.014Z,999.76
2022-07-26T09:57:54.579Z,999.79
2022-07-26T09:58:59.183Z,999.74
2022-07-26T10:00:05.894Z,999.8
2022-07-26T10:01:12.540Z,999.76
2022-07-26T10:02:17.104Z,999.83
2022-07-26T10:03:21.599Z,999.86
2022-07-26T10:04:26.206Z,999.83
2022-07-26T10:05:30.722Z,999.84
2022-07-26T10:06:35.262Z,999.83
2022-07-26T10:07:39.932Z,999.85
2022-07-26T10:08:44.448Z,999.79
2022-07-26T10:09:49.032Z,999.9
2022-07-26T10:10:53.578Z,999.85
2022-07-26T10:11:58.187Z,999.85
2022-07-26T10:13:02.693Z,999.85
2022-07-26T10:14:09.334Z,999.81
2022-07-26T10:15:13.925Z,999.84
2022-07-26T10:16:22.749Z,999.87
2022-07-26T10:17:35.774Z,999.81
2022-07-26T10:18:41.069Z,999.84
2022-07-26T10:19:48.367Z,999.84
2022-07-26T10:20:52.725Z,999.81
2022-07-26T10:21:57.305Z,999.83
2022-07-26T10:23:01.897Z,999.82
2022-07-26T10:24:07.022Z,999.77
2022-07-26T10:25:11.839Z,999.8
2022-07-26T10:26:16.415Z,999.82
2022-07-26T10:27:20.982Z,999.76
2022-07-26T10:28:25.564Z,999.79
2022-07-26T10:29:30.086Z,999.78
2022-07-26T10:30:35.834Z,999.82
2022-07-26T10:31:40.557Z,999.82
2022-07-26T10:32:45.103Z,999.79
2022-07-26T10:33:49.609Z,999.79
2022-07-26T10:34:54.132Z,999.8
2022-07-26T10:35:58.674Z,999.76
2022-07-26T10:37:03.193Z,999.81
2022-07-26T10:38:07.711Z,999.79
2022-07-26T10:39:12.272Z,999.79
2022-07-26T10:40:16.818Z,999.75
2022-07-26T10:41:24.186Z,999.83
2022-07-26T10:42:28.574Z,999.77
2022-07-26T10:43:43.083Z,999.81
2022-07-26T10:44:47.345Z,999.85
2022-07-26T10:45:51.862Z,999.75
2022-07-26T10:46:56.706Z,999.85
2022-07-26T10:48:01.293Z,999.84
2022-07-26T10:49:06.020Z,999.88
2022-07-26T10:50:10.737Z,999.8
2022-07-26T10:51:15.333Z,999.81
2022-07-26T10:52:23.455Z,999.74
2022-07-26T10:53:31.402Z,999.75
2022-07-26T10:54:35.773Z,999.72
2022-07-26T10:55:40.321Z,999.8
2022-07-26T10:56:44.888Z,999.74
2022-07-26T10:57:49.484Z,999.75
2022-07-26T10:58:54.029Z,999.74
2022-07-26T10:59:58.620Z,999.73
2022-07-26T11:01:03.180Z,999.71
2022-07-26T11:02:08.043Z,999.72
2022-07-26T11:03:21.335Z,999.7
2022-07-26T11:04:29.247Z,999.68
2022-07-26T11:05:33.552Z,999.69
2022-07-26T11:06:38.628Z,999.72
2022-07-26T11:07:43.162Z,999.79
2022-07-26T11:08:48.779Z,999.75
2022-07-26T11:09:53.241Z,999.77
2022-07-26T11:10:57.776Z,999.7
2022-07-26T11:12:02.308Z,999.75
2022-07-26T11:13:10.410Z,999.68
2022-07-26T11:14:18.161Z,999.66
2022-07-26T11:15:22.768Z,999.63
2022-07-26T11:16:27.646Z,999.66
2022-07-26T11:17:32.213Z,999.67
2022-07-26T11:18:36.775Z,999.56
2022-07-26T11:19:44.919Z,999.62
2022-07-26T11:20:49.321Z,999.6
2022-07-26T11:21:54.475Z,999.53
2022-07-26T11:22:58.997Z,999.62
2022-07-26T11:24:03.563Z,999.58
2022-07-26T11:25:08.169Z,999.48
2022-07-26T11:26:12.729Z,999.6
2022-07-26T11:27:17.229Z,999.63
2022-07-26T11:28:23.832Z,999.64
2022-07-26T11:29:41.555Z,999.66
2022-07-26T11:30:47.321Z,999.7
2022-07-26T11:32:14.430Z,999.71
2022-07-26T11:33:14.632Z,999.66
2022-07-26T11:34:19.139Z,999.63
2022-07-26T11:35:30.405Z,999.69
2022-07-26T11:36:34.925Z,999.65
2022-07-26T11:37:39.425Z,999.65
2022-07-26T11:38:43.936Z,999.67
2022-07-26T11:39:48.492Z,999.68
2022-07-26T11:40:53.047Z,999.65
2022-07-26T11:41:58.635Z,999.59
2022-07-26T11:43:03.255Z,999.61
2022-07-26T11:44:07.782Z,999.53
2022-07-26T11:45:12.399Z,999.61
2022-07-26T11:46:17.200Z,999.57
2022-07-26T11:47:27.048Z,999.58
2022-07-26T11:48:31.530Z,999.63
2022-07-26T11:50:01.335Z,999.47
2022-07-26T11:51:07.301Z,999.53
2022-07-26T11:52:11.482Z,999.52
2022-07-26T11:53:15.982Z,999.5
2022-07-26T11:54:20.453Z,999.54
2022-07-26T11:55:25.021Z,999.54
2022-07-26T11:56:29.498Z,999.5
2022-07-26T11:57:34.029Z,999.49
2022-07-26T11:58:39.141Z,999.35
2022-07-26T11:59:43.692Z,999.4
2022-07-26T12:00:48.210Z,999.49
2022-07-26T12:01:52.759Z,999.42
2022-07-26T12:02:57.340Z,999.43
2022-07-26T12:04:02.491Z,999.46
2022-07-26T12:05:07.722Z,999.44
2022-07-26T12:06:12.296Z,999.44
2022-07-26T12:07:16.848Z,999.49
2022-07-26T12:08:21.894Z,999.48
2022-07-26T12:09:26.419Z,999.5
2022-07-26T12:10:33.697Z,999.48
2022-07-26T12:11:38.107Z,999.48
2022-07-26T12:12:42.655Z,999.5
2022-07-26T12:13:56.431Z,999.51
2022-07-26T12:15:00.934Z,999.45
2022-07-26T12:16:09.129Z,999.51
2022-07-26T12:17:13.538Z,999.52
2022-07-26T12:18:19.637Z,999.46
2022-07-26T12:19:24.628Z,999.44
2022-07-26T12:20:29.126Z,999.42
2022-07-26T12:21:33.723Z,999.44
2022-07-26T12:22:41.802Z,999.43
2022-07-26T12:23:46.406Z,999.36
2022-07-26T12:24:50.991Z,999.33
2022-07-26T12:25:55.528Z,999.33
2022-07-26T12:27:00.222Z,999.37
2022-07-26T12:28:06.355Z,999.34
2022-07-26T12:29:11.758Z,999.31
2022-07-26T12:30:16.866Z,999.34
2022-07-26T12:31:21.830Z,999.31
2022-07-26T12:32:27.963Z,999.34
2022-07-26T12:33:32.437Z,999.39
2022-07-26T12:34:38.087Z,999.36
2022-07-26T12:35:42.705Z,999.36
2022-07-26T12:36:57.203Z,999.32
2022-07-26T12:38:01.490Z,999.3
2022-07-26T12:39:06.028Z,999.3
2022-07-26T12:40:13.398Z,999.27
2022-07-26T12:41:17.886Z,999.2
2022-07-26T12:42:22.366Z,999.32
2022-07-26T12:43:29.591Z,999.22
2022-07-26T12:44:36.597Z,999.22
2022-07-26T12:45:41.005Z,999.21
2022-07-26T12:46:46.089Z,999.26
2022-07-26T12:47:50.687Z,999.24
2022-07-26T12:49:01.555Z,999.19
2022-07-26T12:50:05.885Z,999.2
2022-07-26T12:51:10.488Z,999.19
2022-07-26T12:52:14.985Z,999.22
2022-07-26T12:53:19.555Z,999.15
2022-07-26T12:54:30.414Z,999.12
2022-07-26T12:55:34.704Z,999.13
2022-07-26T12:56:39.648Z,999.19
2022-07-26T12:57:48.084Z,999.12
2022-07-26T12:58:52.391Z,999.14
2022-07-26T12:59:58.517Z,999.23
2022-07-26T13:01:03.270Z,999.22
2022-07-26T13:02:07.797Z,999.18
2022-07-26T13:03:12.358Z,999.13
2022-07-26T13:04:20.409Z,999.11
2022-07-26T13:05:24.723Z,999.1
2022-07-26T13:06:29.288Z,999.1
2022-07-26T13:07:33.811Z,999.05
2022-07-26T13:08:38.326Z,999.01
2022-07-26T13:09:44.389Z,999.01
2022-07-26T13:10:48.845Z,999.02
2022-07-26T13:11:59.988Z,999
2022-07-26T13:13:07.900Z,998.96
2022-07-26T13:14:14.959Z,999
2022-07-26T13:15:19.319Z,998.94
2022-07-26T13:16:24.194Z,998.97
2022-07-26T13:17:28.801Z,998.92
2022-07-26T13:18:33.377Z,998.93
2022-07-26T13:19:37.991Z,998.86
2022-07-26T13:20:42.591Z,998.91
2022-07-26T13:21:53.472Z,998.91
2022-07-26T13:22:58.120Z,998.88
2022-07-26T13:24:02.696Z,998.86
2022-07-26T13:25:13.270Z,998.82
2022-07-26T13:26:22.419Z,998.86
2022-07-26T13:27:44.439Z,998.77
2022-07-26T13:28:50.324Z,998.84
2022-07-26T13:29:54.679Z,998.92
2022-07-26T13:30:59.643Z,998.86
2022-07-26T13:32:04.146Z,998.84
2022-07-26T13:33:08.658Z,998.76
2022-07-26T13:34:15.055Z,998.75
2022-07-26T13:35:19.502Z,998.76
2022-07-26T13:36:24.575Z,998.77
2022-07-26T13:37:32.644Z,998.82
2022-07-26T13:38:36.996Z,998.77
2022-07-26T13:39:41.531Z,998.8
2022-07-26T13:40:46.047Z,998.75
2022-07-26T13:41:51.768Z,998.79
2022-07-26T13:42:56.247Z,998.8